createdAt,value
2018-07-13T00:00:23.383Z,85.90
2018-07-13T00:02:51.741Z,85.70
2018-07-13T00:05:20.122Z,85.80
2018-07-13T00:07:48.576Z,85.40
2018-07-13T00:10:16.984Z,85.60
2018-07-13T00:12:45.360Z,85.70
2018-07-13T00:15:14.017Z,86.00
2018-07-13T00:17:42.402Z,85.60
2018-07-13T00:20:10.780Z,85.70
2018-07-13T00:22:39.153Z,85.70
2018-07-13T00:25:07.565Z,85.80
2018-07-13T00:27:35.976Z,85.60
2018-07-13T00:30:04.571Z,85.90
2018-07-13T00:32:33.013Z,85.80
2018-07-13T00:35:01.433Z,85.40
2018-07-13T00:37:29.788Z,85.60
2018-07-13T00:39:58.162Z,85.90
2018-07-13T00:42:26.603Z,85.90
2018-07-13T00:44:55.015Z,85.90
2018-07-13T00:47:23.376Z,86.00
2018-07-13T00:49:52.056Z,86.20
2018-07-13T00:52:20.503Z,85.80
2018-07-13T00:54:48.893Z,86.50
2018-07-13T00:57:17.455Z,86.10
2018-07-13T00:59:45.811Z,86.00
2018-07-13T01:02:14.510Z,85.80
2018-07-13T01:04:43.134Z,85.70
2018-07-13T01:07:11.741Z,85.70
2018-07-13T01:09:41.347Z,86.00
2018-07-13T01:12:09.821Z,86.10
2018-07-13T01:14:38.448Z,86.30
2018-07-13T01:17:06.871Z,86.50
2018-07-13T01:19:35.636Z,86.80
2018-07-13T01:22:04.266Z,86.70
2018-07-13T01:24:32.803Z,86.60
2018-07-13T01:27:01.163Z,86.70
2018-07-13T01:29:29.494Z,86.70
2018-07-13T01:31:57.858Z,86.80
2018-07-13T01:34:26.208Z,87.10
2018-07-13T01:36:54.641Z,87.30
2018-07-13T01:39:23.042Z,87.50
2018-07-13T01:41:51.509Z,87.30
2018-07-13T01:44:19.858Z,87.30
2018-07-13T01:46:48.234Z,87.50
2018-07-13T01:49:16.608Z,87.30
2018-07-13T01:51:44.999Z,86.90
2018-07-13T01:54:13.420Z,86.80
2018-07-13T01:56:41.754Z,87.40
2018-07-13T01:59:10.240Z,87.40
2018-07-13T02:01:38.612Z,87.20
2018-07-13T02:04:06.993Z,87.20
2018-07-13T02:06:35.451Z,87.30
2018-07-13T02:09:04.323Z,86.90
2018-07-13T02:11:32.717Z,86.80
2018-07-13T02:14:01.076Z,86.90
2018-07-13T02:16:29.765Z,87.20
2018-07-13T02:18:58.147Z,86.90
2018-07-13T02:21:26.585Z,87.00
2018-07-13T02:23:55.079Z,86.90
2018-07-13T02:26:23.445Z,87.00
2018-07-13T02:28:51.853Z,86.90
2018-07-13T02:31:20.265Z,87.30
2018-07-13T02:33:48.717Z,87.50
2018-07-13T02:36:17.047Z,87.50
2018-07-13T02:38:45.409Z,87.70
2018-07-13T02:41:13.890Z,87.80
2018-07-13T02:43:42.356Z,87.60
2018-07-13T02:46:10.788Z,87.70
2018-07-13T02:48:39.136Z,87.70
2018-07-13T02:51:07.537Z,87.90
2018-07-13T02:53:35.872Z,88.10
2018-07-13T02:56:04.416Z,88.00
2018-07-13T02:58:32.776Z,88.30
2018-07-13T03:01:01.140Z,88.30
2018-07-13T03:03:29.502Z,88.20
2018-07-13T03:05:57.924Z,88.00
2018-07-13T03:08:26.302Z,87.90
2018-07-13T03:10:54.699Z,88.10
2018-07-13T03:13:23.395Z,88.00
2018-07-13T03:15:51.783Z,88.20
2018-07-13T03:18:20.176Z,88.20
2018-07-13T03:20:48.560Z,88.30
2018-07-13T03:23:16.947Z,88.00
2018-07-13T03:25:45.351Z,88.40
2018-07-13T03:28:13.725Z,88.60
2018-07-13T03:30:42.306Z,88.80
2018-07-13T03:33:10.744Z,88.40
2018-07-13T03:35:39.154Z,88.40
2018-07-13T03:38:07.582Z,88.40
2018-07-13T03:40:36.030Z,88.50
2018-07-13T03:43:04.424Z,88.50
2018-07-13T03:45:32.894Z,88.60
2018-07-13T03:48:01.331Z,88.90
2018-07-13T03:50:29.930Z,88.80
2018-07-13T03:52:58.439Z,88.80
2018-07-13T03:55:26.916Z,89.00
2018-07-13T03:57:55.298Z,89.10
2018-07-13T04:00:23.726Z,89.00
2018-07-13T04:02:52.095Z,89.00
2018-07-13T04:05:20.570Z,89.00
2018-07-13T04:07:48.954Z,88.80
2018-07-13T04:10:17.377Z,88.80
2018-07-13T04:12:45.779Z,88.50
2018-07-13T04:15:14.239Z,88.30
2018-07-13T04:17:42.664Z,88.10
2018-07-13T04:20:11.097Z,88.00
2018-07-13T04:22:39.767Z,88.00
2018-07-13T04:25:08.157Z,87.70
2018-07-13T04:27:37.115Z,87.40
2018-07-13T04:30:06.059Z,87.00
2018-07-13T04:32:34.471Z,86.40
2018-07-13T04:35:02.872Z,86.00
2018-07-13T04:37:31.415Z,86.00
2018-07-13T04:40:00.069Z,85.70
2018-07-13T04:42:28.488Z,85.30
2018-07-13T04:44:56.795Z,85.40
2018-07-13T04:47:25.199Z,85.40
2018-07-13T04:49:53.553Z,84.70
2018-07-13T04:52:21.975Z,84.50
2018-07-13T04:54:50.373Z,84.50
2018-07-13T04:57:18.764Z,84.00
2018-07-13T04:59:47.135Z,84.20
2018-07-13T05:02:15.737Z,83.10
2018-07-13T05:04:44.183Z,82.70
2018-07-13T05:07:12.633Z,82.70
2018-07-13T05:09:41.019Z,83.20
2018-07-13T05:12:09.793Z,83.30
2018-07-13T05:14:38.551Z,82.70
2018-07-13T05:17:07.061Z,82.70
2018-07-13T05:19:35.408Z,82.90
2018-07-13T05:22:03.888Z,82.50
2018-07-13T05:24:32.312Z,82.70
2018-07-13T05:27:00.773Z,82.50
2018-07-13T05:29:29.169Z,82.60
2018-07-13T05:31:57.646Z,81.90
2018-07-13T05:34:26.057Z,81.90
2018-07-13T05:36:54.482Z,81.80
2018-07-13T05:39:22.918Z,81.20
2018-07-13T05:41:51.403Z,80.70
2018-07-13T05:44:20.117Z,81.10
2018-07-13T05:46:48.487Z,81.20
2018-07-13T05:49:16.982Z,80.20
2018-07-13T05:51:45.712Z,79.90
2018-07-13T05:54:14.663Z,79.60
2018-07-13T05:56:43.177Z,79.70
2018-07-13T05:59:11.669Z,79.70
2018-07-13T06:01:40.107Z,80.30
2018-07-13T06:04:09.020Z,79.60
2018-07-13T06:06:37.454Z,79.50
2018-07-13T06:09:08.363Z,79.30
2018-07-13T06:11:57.925Z,78.20
2018-07-13T06:14:26.285Z,78.60
2018-07-13T06:16:54.685Z,78.00
2018-07-13T06:19:23.098Z,78.70
2018-07-13T06:21:52.235Z,78.20
2018-07-13T06:24:20.696Z,77.90
2018-07-13T06:26:49.137Z,77.90
2018-07-13T06:29:17.621Z,77.90
2018-07-13T06:31:46.048Z,77.10
2018-07-13T06:34:14.588Z,77.20
2018-07-13T06:36:42.962Z,77.00
2018-07-13T06:39:12.591Z,75.70
2018-07-13T06:41:41.021Z,75.80
2018-07-13T06:44:09.525Z,75.90
2018-07-13T06:46:42.608Z,75.90
2018-07-13T06:49:11.082Z,76.70
2018-07-13T06:51:39.598Z,76.30
2018-07-13T06:54:08.415Z,77.40
2018-07-13T06:56:44.246Z,76.10
2018-07-13T06:59:15.863Z,75.90
2018-07-13T07:01:44.900Z,75.90
2018-07-13T07:04:29.662Z,76.20
2018-07-13T07:06:59.371Z,76.20
2018-07-13T07:09:28.323Z,75.00
2018-07-13T07:12:10.066Z,74.80
2018-07-13T07:14:38.591Z,74.70
2018-07-13T07:17:07.067Z,74.00
2018-07-13T07:19:39.452Z,73.50
2018-07-13T07:22:07.837Z,74.30
2018-07-13T07:24:36.300Z,73.90
2018-07-13T07:27:06.293Z,73.30
2018-07-13T07:29:34.692Z,72.10
2018-07-13T07:32:03.152Z,72.00
2018-07-13T07:34:31.710Z,72.00
2018-07-13T07:37:00.174Z,71.00
2018-07-13T07:39:28.647Z,71.30
2018-07-13T07:41:57.061Z,72.40
2018-07-13T07:44:25.519Z,71.80
2018-07-13T07:46:53.971Z,71.10
2018-07-13T07:49:22.340Z,71.80
2018-07-13T07:51:50.875Z,71.10
2018-07-13T07:54:19.548Z,71.00
2018-07-13T07:56:47.899Z,70.40
2018-07-13T07:59:16.260Z,71.10
2018-07-13T08:01:44.861Z,70.00
2018-07-13T08:04:13.227Z,69.30
2018-07-13T08:06:41.908Z,69.50
2018-07-13T08:09:10.066Z,68.40
2018-07-13T08:11:38.478Z,67.70
2018-07-13T08:14:07.482Z,67.80
2018-07-13T08:16:35.868Z,66.30
2018-07-13T08:19:04.329Z,66.50
2018-07-13T08:21:36.563Z,66.80
2018-07-13T08:24:05.056Z,66.10
2018-07-13T08:26:33.560Z,65.40
2018-07-13T08:29:02.091Z,64.70
2018-07-13T08:31:30.548Z,64.30
2018-07-13T08:33:58.989Z,64.50
2018-07-13T08:36:27.416Z,64.20
2018-07-13T08:38:55.871Z,64.40
2018-07-13T08:41:24.359Z,63.40
2018-07-13T08:43:52.765Z,62.50
2018-07-13T08:46:21.186Z,62.50
2018-07-13T08:48:49.687Z,63.30
2018-07-13T08:51:18.143Z,63.50
2018-07-13T08:53:46.592Z,64.80
2018-07-13T08:56:15.049Z,65.80
2018-07-13T08:58:43.404Z,64.90
2018-07-13T09:01:11.826Z,62.90
2018-07-13T09:03:40.225Z,62.20
2018-07-13T09:06:09.314Z,61.70
2018-07-13T09:08:37.751Z,61.00
2018-07-13T09:11:06.469Z,62.10
2018-07-13T09:13:34.887Z,61.20
2018-07-13T09:16:03.303Z,61.50
2018-07-13T09:18:31.715Z,61.20
2018-07-13T09:21:00.099Z,61.70
2018-07-13T09:23:28.543Z,61.80
2018-07-13T09:25:56.965Z,62.60
2018-07-13T09:28:25.444Z,60.00
2018-07-13T09:30:53.904Z,59.50
2018-07-13T09:33:22.329Z,58.90
2018-07-13T09:35:51.292Z,59.00
2018-07-13T09:38:20.122Z,58.80
2018-07-13T09:40:48.594Z,59.10
2018-07-13T09:43:17.105Z,59.00
2018-07-13T09:45:45.570Z,58.90
2018-07-13T09:48:14.331Z,58.40
2018-07-13T09:50:42.732Z,58.70
2018-07-13T09:53:11.121Z,58.90
2018-07-13T09:55:39.552Z,59.50
2018-07-13T09:58:07.979Z,60.40
2018-07-13T10:00:41.682Z,59.60
2018-07-13T10:03:10.112Z,59.40
2018-07-13T10:05:38.509Z,59.50
2018-07-13T10:08:06.903Z,58.90
2018-07-13T10:10:35.365Z,58.20
2018-07-13T10:13:03.735Z,58.30
2018-07-13T10:15:32.175Z,58.80
2018-07-13T10:18:00.779Z,57.70
2018-07-13T10:20:29.182Z,58.00
2018-07-13T10:22:57.580Z,58.60
2018-07-13T10:25:28.136Z,59.10
2018-07-13T10:27:56.829Z,58.40
2018-07-13T10:30:25.978Z,58.10
2018-07-13T10:32:54.676Z,57.60
2018-07-13T10:35:23.085Z,57.60
2018-07-13T10:37:51.521Z,56.60
2018-07-13T10:40:19.930Z,55.50
2018-07-13T10:42:48.304Z,55.00
2018-07-13T10:45:16.656Z,55.20
2018-07-13T10:47:45.209Z,55.20
2018-07-13T10:50:14.243Z,56.20
2018-07-13T10:52:42.614Z,56.10
2018-07-13T10:55:11.066Z,55.40
2018-07-13T10:57:39.527Z,55.10
2018-07-13T11:00:07.900Z,54.90
2018-07-13T11:02:36.326Z,55.80
2018-07-13T11:05:05.311Z,56.00
2018-07-13T11:07:33.723Z,56.00
2018-07-13T11:10:02.066Z,54.80
2018-07-13T11:12:30.506Z,54.90
2018-07-13T11:14:58.945Z,54.30
2018-07-13T11:17:27.332Z,55.20
2018-07-13T11:19:55.694Z,54.90
2018-07-13T11:22:24.079Z,54.20
2018-07-13T11:24:52.542Z,54.40
2018-07-13T11:27:20.974Z,52.90
2018-07-13T11:29:49.474Z,52.80
2018-07-13T11:32:17.995Z,53.40
2018-07-13T11:34:46.567Z,53.40
2018-07-13T11:37:15.081Z,52.90
2018-07-13T11:39:43.383Z,52.90
2018-07-13T11:42:11.785Z,52.90
2018-07-13T11:44:40.171Z,53.30
2018-07-13T11:47:08.612Z,52.00
2018-07-13T11:49:36.995Z,52.00
2018-07-13T11:52:05.351Z,52.00
2018-07-13T11:54:33.772Z,52.80
2018-07-13T11:57:02.130Z,51.70
2018-07-13T11:59:30.701Z,51.10
2018-07-13T12:01:59.085Z,50.70
2018-07-13T12:04:27.434Z,51.40
2018-07-13T12:06:56.355Z,50.70
2018-07-13T12:09:24.773Z,49.40
2018-07-13T12:11:53.260Z,50.30
2018-07-13T12:14:21.689Z,50.80
2018-07-13T12:16:50.120Z,49.40
2018-07-13T12:19:18.511Z,49.40
2018-07-13T12:21:46.918Z,49.40
2018-07-13T12:24:15.459Z,49.60
2018-07-13T12:26:43.877Z,49.70
2018-07-13T12:29:13.133Z,49.70
2018-07-13T12:31:41.576Z,49.20
2018-07-13T12:34:09.963Z,50.10
2018-07-13T12:36:38.342Z,50.50
2018-07-13T12:39:07.043Z,49.60
2018-07-13T12:41:35.464Z,49.90
2018-07-13T12:44:03.932Z,50.00
2018-07-13T12:46:32.411Z,49.40
2018-07-13T12:49:00.898Z,49.30
2018-07-13T12:51:29.415Z,49.80
2018-07-13T12:53:57.824Z,49.00
2018-07-13T12:56:26.249Z,49.40
2018-07-13T12:58:54.700Z,49.50
2018-07-13T13:01:24.299Z,49.00
2018-07-13T13:03:52.896Z,49.30
2018-07-13T13:06:21.360Z,49.20
2018-07-13T13:08:49.749Z,49.10
2018-07-13T13:11:18.197Z,48.70
2018-07-13T13:13:46.542Z,48.80
2018-07-13T13:16:15.027Z,49.00
2018-07-13T13:18:43.411Z,50.00
2018-07-13T13:21:11.755Z,49.40
2018-07-13T13:23:40.095Z,48.70
2018-07-13T13:26:08.445Z,48.60
2018-07-13T13:28:36.806Z,49.30
2018-07-13T13:31:05.134Z,49.20
2018-07-13T13:33:33.697Z,50.90
2018-07-13T13:36:02.036Z,51.30
2018-07-13T13:38:31.655Z,52.10
2018-07-13T13:40:59.978Z,52.30
2018-07-13T13:43:28.340Z,52.70
2018-07-13T13:45:56.737Z,51.00
2018-07-13T13:48:25.133Z,51.20
2018-07-13T13:50:53.481Z,51.10
2018-07-13T13:53:21.799Z,51.30
2018-07-13T13:55:50.176Z,50.00
2018-07-13T13:58:18.559Z,49.60
2018-07-13T14:00:48.039Z,48.70
2018-07-13T14:03:16.502Z,49.20
2018-07-13T14:05:45.521Z,48.50
2018-07-13T14:08:13.928Z,48.80
2018-07-13T14:10:42.285Z,47.70
2018-07-13T14:13:10.655Z,47.30
2018-07-13T14:15:39.060Z,48.30
2018-07-13T14:18:07.699Z,47.30
2018-07-13T14:20:42.756Z,48.60
2018-07-13T14:23:11.471Z,48.70
2018-07-13T14:25:40.532Z,47.40
2018-07-13T14:28:08.894Z,48.00
2018-07-13T14:30:37.253Z,48.20
2018-07-13T14:33:05.641Z,48.10
2018-07-13T14:35:34.016Z,47.90
2018-07-13T14:38:02.367Z,48.50
2018-07-13T14:40:30.705Z,47.60
2018-07-13T14:42:59.071Z,47.60
2018-07-13T14:45:27.455Z,48.10
2018-07-13T14:47:55.842Z,47.60
2018-07-13T14:50:24.224Z,47.50
2018-07-13T14:52:55.948Z,47.40
2018-07-13T14:55:24.266Z,46.90
2018-07-13T14:57:52.701Z,47.20
2018-07-13T15:00:21.108Z,47.20
2018-07-13T15:02:49.659Z,46.80
2018-07-13T15:05:18.036Z,46.80
2018-07-13T15:07:46.519Z,46.50
2018-07-13T15:10:15.653Z,47.90
2018-07-13T15:12:45.006Z,46.40
2018-07-13T15:15:14.553Z,46.10
2018-07-13T15:17:44.934Z,46.20
2018-07-13T15:20:13.816Z,46.50
2018-07-13T15:22:54.072Z,46.20
2018-07-13T15:25:23.277Z,46.30
2018-07-13T15:27:52.340Z,46.50
2018-07-13T15:30:21.301Z,45.20
2018-07-13T15:32:50.984Z,45.00
2018-07-13T15:35:19.398Z,44.90
2018-07-13T15:37:48.341Z,45.70
2018-07-13T15:40:17.758Z,44.60
2018-07-13T15:42:47.314Z,45.10
2018-07-13T15:45:17.355Z,44.70
2018-07-13T15:47:47.703Z,44.70
2018-07-13T15:50:16.767Z,44.00
2018-07-13T15:52:45.612Z,42.80
2018-07-13T15:55:14.342Z,42.00
2018-07-13T15:57:45.120Z,39.40
2018-07-13T16:00:15.060Z,37.00
2018-07-13T16:02:43.551Z,34.30
2018-07-13T16:05:11.951Z,33.90
2018-07-13T16:07:40.303Z,32.60
2018-07-13T16:10:08.790Z,31.60
2018-07-13T16:12:37.181Z,30.80
2018-07-13T16:15:05.600Z,29.80
2018-07-13T16:17:33.927Z,29.10
2018-07-13T16:20:02.255Z,29.10
2018-07-13T16:22:30.579Z,28.30
2018-07-13T16:24:59.311Z,28.00
2018-07-13T16:27:27.687Z,27.40
2018-07-13T16:29:56.087Z,27.60
2018-07-13T16:32:24.510Z,27.20
2018-07-13T16:34:52.893Z,27.40
2018-07-13T16:37:21.303Z,27.10
2018-07-13T16:39:49.757Z,27.00
2018-07-13T16:42:18.239Z,27.00
2018-07-13T16:44:47.085Z,27.10
2018-07-13T16:47:15.689Z,27.30
2018-07-13T16:49:46.171Z,26.80
2018-07-13T16:52:14.655Z,27.20
2018-07-13T16:54:43.100Z,27.10
2018-07-13T16:57:11.502Z,27.10
2018-07-13T16:59:39.905Z,27.00
2018-07-13T17:02:08.273Z,27.00
2018-07-13T17:04:36.618Z,26.50
2018-07-13T17:07:05.150Z,26.70
2018-07-13T17:09:33.506Z,27.20
2018-07-13T17:12:01.865Z,27.20
2018-07-13T17:14:30.226Z,27.70
2018-07-13T17:16:59.127Z,28.00
2018-07-13T17:19:27.506Z,28.30
2018-07-13T17:21:55.938Z,28.40
2018-07-13T17:24:24.556Z,28.30
2018-07-13T17:26:53.019Z,28.60
2018-07-13T17:29:23.440Z,29.40
2018-07-13T17:31:51.759Z,28.80
2018-07-13T17:34:20.766Z,29.60
2018-07-13T17:37:09.965Z,30.10
2018-07-13T17:39:45.219Z,32.80
2018-07-13T17:42:13.662Z,38.30
2018-07-13T17:44:42.048Z,42.60
2018-07-13T17:47:10.394Z,46.00
2018-07-13T17:49:38.814Z,47.70
2018-07-13T17:52:07.258Z,49.60
2018-07-13T17:54:36.034Z,51.00
2018-07-13T17:57:04.595Z,51.50
2018-07-13T17:59:33.029Z,53.30
2018-07-13T18:02:01.664Z,54.20
2018-07-13T18:04:30.414Z,54.10
2018-07-13T18:06:58.836Z,54.90
2018-07-13T18:09:27.207Z,55.90
2018-07-13T18:11:55.610Z,57.20
2018-07-13T18:14:23.951Z,57.60
2018-07-13T18:16:52.802Z,58.50
2018-07-13T18:19:22.295Z,58.90
2018-07-13T18:21:50.739Z,59.40
2018-07-13T18:24:19.063Z,60.30
2018-07-13T18:26:47.445Z,60.70
2018-07-13T18:29:15.904Z,61.00
2018-07-13T18:31:44.261Z,61.40
2018-07-13T18:34:13.534Z,62.00
2018-07-13T18:36:42.403Z,62.10
2018-07-13T18:39:10.725Z,62.50
2018-07-13T18:41:39.082Z,62.70
2018-07-13T18:44:07.525Z,63.30
2018-07-13T18:46:35.839Z,63.40
2018-07-13T18:49:04.223Z,64.00
2018-07-13T18:51:32.573Z,64.70
2018-07-13T18:54:00.931Z,65.50
2018-07-13T18:56:29.252Z,65.90
2018-07-13T18:58:57.641Z,65.90
2018-07-13T19:01:26.126Z,66.30
2018-07-13T19:03:54.488Z,66.40
2018-07-13T19:06:22.838Z,66.60
2018-07-13T19:08:51.218Z,66.90
2018-07-13T19:11:19.599Z,67.00
2018-07-13T19:13:48.080Z,67.30
2018-07-13T19:16:17.544Z,67.50
2018-07-13T19:18:45.905Z,67.80
2018-07-13T19:21:14.272Z,68.40
2018-07-13T19:23:42.746Z,69.00
2018-07-13T19:26:11.159Z,69.20
2018-07-13T19:28:39.538Z,69.50
2018-07-13T19:31:08.022Z,70.20
2018-07-13T19:33:36.651Z,70.40
2018-07-13T19:36:05.139Z,70.90
2018-07-13T19:38:35.216Z,71.10
2018-07-13T19:41:03.710Z,71.30
2018-07-13T19:43:32.520Z,71.40
2018-07-13T19:46:00.939Z,71.50
2018-07-13T19:48:32.247Z,71.70
2018-07-13T19:51:04.457Z,71.70
2018-07-13T19:53:33.731Z,71.80
2018-07-13T19:56:02.867Z,71.90
2018-07-13T19:58:32.120Z,72.60
2018-07-13T20:01:04.951Z,72.70
2018-07-13T20:03:34.183Z,73.00
2018-07-13T20:06:04.191Z,72.80
2018-07-13T20:08:35.600Z,73.70
2018-07-13T20:11:06.412Z,74.00
2018-07-13T20:13:35.984Z,73.90
2018-07-13T20:16:05.350Z,74.10
2018-07-13T20:18:34.913Z,74.70
2018-07-13T20:21:05.235Z,74.50
2018-07-13T20:23:33.587Z,75.10
2018-07-13T20:26:01.961Z,75.20
2018-07-13T20:28:31.367Z,74.70
2018-07-13T20:30:59.888Z,75.20
2018-07-13T20:33:28.740Z,75.10
2018-07-13T20:35:57.325Z,76.20
2018-07-13T20:38:26.651Z,75.70
2018-07-13T20:40:55.590Z,75.60
2018-07-13T20:43:26.587Z,75.60
2018-07-13T20:45:56.045Z,75.90
2018-07-13T20:48:24.413Z,75.60
2018-07-13T20:50:52.799Z,75.60
2018-07-13T20:53:21.183Z,76.80
2018-07-13T20:55:49.540Z,76.30
2018-07-13T20:58:17.950Z,75.60
2018-07-13T21:00:46.376Z,74.80
2018-07-13T21:03:14.760Z,75.40
2018-07-13T21:05:43.312Z,75.90
2018-07-13T21:08:11.845Z,75.20
2018-07-13T21:10:40.186Z,75.30
2018-07-13T21:13:08.617Z,75.90
2018-07-13T21:15:36.963Z,74.50
2018-07-13T21:18:05.343Z,75.20
2018-07-13T21:20:33.767Z,75.60
2018-07-13T21:23:02.239Z,75.40
2018-07-13T21:25:30.599Z,74.70
2018-07-13T21:27:59.104Z,75.20
2018-07-13T21:30:27.448Z,75.10
2018-07-13T21:32:55.836Z,75.80
2018-07-13T21:35:24.168Z,76.50
2018-07-13T21:37:52.546Z,75.30
2018-07-13T21:40:20.914Z,74.70
2018-07-13T21:42:49.319Z,75.20
2018-07-13T21:45:17.842Z,76.60
2018-07-13T21:47:46.292Z,76.30
2018-07-13T21:50:14.710Z,74.60
2018-07-13T21:52:43.096Z,75.10
2018-07-13T21:55:11.476Z,76.30
2018-07-13T21:57:39.837Z,76.50
2018-07-13T22:00:08.245Z,76.70
2018-07-13T22:02:36.772Z,74.90
2018-07-13T22:05:05.060Z,75.60
2018-07-13T22:07:33.457Z,75.20
2018-07-13T22:10:01.835Z,76.40
2018-07-13T22:12:30.251Z,76.40
2018-07-13T22:14:58.593Z,74.90
2018-07-13T22:17:26.947Z,75.90
2018-07-13T22:19:55.307Z,75.90
2018-07-13T22:22:23.692Z,76.10
2018-07-13T22:24:52.108Z,76.50
2018-07-13T22:27:20.459Z,76.70
2018-07-13T22:29:48.820Z,77.30
2018-07-13T22:32:17.244Z,76.00
2018-07-13T22:34:45.621Z,76.80
2018-07-13T22:37:14.029Z,76.10
2018-07-13T22:39:42.442Z,76.60
2018-07-13T22:42:10.808Z,76.80
2018-07-13T22:44:39.172Z,76.30
2018-07-13T22:47:07.515Z,76.40
2018-07-13T22:49:35.933Z,76.20
2018-07-13T22:52:04.312Z,77.00
2018-07-13T22:54:32.662Z,76.60
2018-07-13T22:57:01.028Z,75.90
2018-07-13T22:59:29.402Z,74.80
2018-07-13T23:01:57.796Z,75.80
2018-07-13T23:04:26.159Z,76.00
2018-07-13T23:06:54.802Z,76.40
2018-07-13T23:09:23.164Z,78.00
2018-07-13T23:11:51.609Z,77.90
2018-07-13T23:14:19.958Z,77.60
2018-07-13T23:16:48.361Z,75.90
2018-07-13T23:19:18.474Z,78.10
2018-07-13T23:21:46.843Z,78.10
2018-07-13T23:24:15.570Z,76.60
2018-07-13T23:26:43.955Z,77.50
2018-07-13T23:29:12.319Z,77.30
2018-07-13T23:31:40.670Z,78.30
2018-07-13T23:34:09.079Z,76.90
2018-07-13T23:36:37.467Z,77.70
2018-07-13T23:39:06.268Z,78.70
2018-07-13T23:41:34.634Z,78.40
2018-07-13T23:44:03.104Z,77.90
2018-07-13T23:46:31.526Z,78.20
2018-07-13T23:48:59.927Z,77.40
2018-07-13T23:51:28.339Z,77.70
2018-07-13T23:53:56.719Z,78.40
2018-07-13T23:56:25.175Z,77.90
2018-07-13T23:58:53.559Z,77.70
